Time;durP1;ratioP1;P1;durP2;ratioP2;P2;SDS_P1;SDS_P2;PMS_P1;PMS_P2;Temp;Humidity;BMP_temperature;BMP_pressure;BME280_temperature;BME280_humidity;BME280_pressure;Samples;Min_cycle;Max_cycle;Signal;HPM_P1;HPM_P2
2022/03/20 00:00:56;;;;;;;24.13;11.33;;;3.60;1.00;;;;;;4916328;29;20553;-48
2022/03/20 00:03:24;;;;;;;21.70;10.80;;;3.60;1.00;;;;;;4916263;29;20195;-48
2022/03/20 00:05:50;;;;;;;25.57;12.90;;;3.50;1.00;;;;;;4916351;29;20551;-48
2022/03/20 00:08:16;;;;;;;22.13;11.70;;;3.60;1.00;;;;;;4899178;29;20924;-47
2022/03/20 00:10:44;;;;;;;19.87;11.57;;;3.60;1.00;;;;;;4914569;29;20458;-48
2022/03/20 00:13:11;;;;;;;16.93;11.30;;;3.50;1.00;;;;;;4923695;29;20509;-48
2022/03/20 00:15:42;;;;;;;23.30;11.70;;;3.50;1.00;;;;;;4925296;29;20433;-47
2022/03/20 00:18:09;;;;;;;27.73;13.33;;;3.50;1.00;;;;;;4916254;29;20466;-48
2022/03/20 00:20:39;;;;;;;20.23;12.37;;;3.40;1.00;;;;;;4910637;29;20567;-48
2022/03/20 00:23:07;;;;;;;23.13;12.67;;;3.40;1.00;;;;;;4904180;29;20474;-48
2022/03/20 00:25:39;;;;;;;20.60;12.07;;;3.40;1.00;;;;;;4914463;29;20431;-47
2022/03/20 00:28:06;;;;;;;30.20;12.87;;;3.40;1.00;;;;;;4914484;29;20449;-47
2022/03/20 00:30:32;;;;;;;24.30;12.20;;;3.40;1.00;;;;;;4913996;29;20451;-48
2022/03/20 00:32:58;;;;;;;22.20;13.70;;;3.30;1.00;;;;;;4914482;29;20477;-48
2022/03/20 00:35:24;;;;;;;20.23;12.47;;;3.30;1.00;;;;;;4913127;29;20518;-47
2022/03/20 00:37:49;;;;;;;21.73;11.93;;;3.30;1.00;;;;;;4914715;29;20199;-48
2022/03/20 00:40:15;;;;;;;26.50;13.00;;;3.20;13.60;;;;;;4914132;29;20202;-47
2022/03/20 00:42:41;;;;;;;23.10;13.40;;;3.20;28.80;;;;;;4914870;29;20274;-48
2022/03/20 00:45:07;;;;;;;23.40;13.30;;;3.10;73.90;;;;;;4915244;29;20195;-48
2022/03/20 00:47:32;;;;;;;30.53;14.60;;;3.10;63.10;;;;;;4914433;29;20205;-48
2022/03/20 00:49:58;;;;;;;27.57;14.47;;;3.10;99.90;;;;;;4915286;29;20798;-48
2022/03/20 00:52:24;;;;;;;32.23;15.77;;;3.00;99.90;;;;;;4913648;29;20254;-48
2022/03/20 00:54:49;;;;;;;25.33;14.90;;;3.00;99.90;;;;;;4914979;29;20203;-48
2022/03/20 00:57:15;;;;;;;29.03;15.70;;;2.90;99.90;;;;;;4914506;29;21100;-48
2022/03/20 00:59:41;;;;;;;22.77;14.37;;;2.90;99.90;;;;;;4914149;29;20278;-47
2022/03/20 01:02:08;;;;;;;28.03;14.93;;;2.90;99.90;;;;;;4914449;29;20581;-48
2022/03/20 01:04:35;;;;;;;29.93;15.97;;;3.00;99.90;;;;;;4910720;29;21109;-48
2022/03/20 01:07:01;;;;;;;30.83;15.43;;;3.00;99.90;;;;;;4915613;29;20475;-47
2022/03/20 01:09:28;;;;;;;33.90;18.20;;;2.90;99.90;;;;;;4914636;29;20430;-48
2022/03/20 01:11:55;;;;;;;28.57;15.83;;;2.90;99.90;;;;;;4915001;29;20478;-50
2022/03/20 01:14:21;;;;;;;30.70;17.13;;;2.90;99.90;;;;;;4914692;29;20450;-47
2022/03/20 01:16:47;;;;;;;29.43;15.87;;;2.90;99.90;;;;;;4915315;29;20774;-48
2022/03/20 01:19:14;;;;;;;32.67;17.87;;;2.90;99.90;;;;;;4915473;29;20547;-48
2022/03/20 01:21:41;;;;;;;30.37;17.13;;;3.00;99.90;;;;;;4897376;29;20478;-48
2022/03/20 01:24:07;;;;;;;33.23;16.47;;;3.00;99.90;;;;;;4910696;29;20454;-48
2022/03/20 01:26:34;;;;;;;36.70;18.57;;;2.90;99.90;;;;;;4918102;29;20430;-48
2022/03/20 01:29:00;;;;;;;34.80;17.27;;;3.00;99.90;;;;;;4917731;29;20467;-49
2022/03/20 01:31:28;;;;;;;30.23;17.70;;;2.90;99.90;;;;;;4914751;29;20882;-48
2022/03/20 01:33:54;;;;;;;33.17;17.67;;;3.00;99.90;;;;;;4914857;29;20506;-48
2022/03/20 01:36:21;;;;;;;32.77;17.90;;;3.00;99.90;;;;;;4914302;29;20423;-48
2022/03/20 01:38:46;;;;;;;35.80;18.70;;;3.00;99.90;;;;;;4914827;29;20578;-47
2022/03/20 01:41:12;;;;;;;34.80;18.10;;;2.90;99.90;;;;;;4912718;29;21194;-48
2022/03/20 01:43:38;;;;;;;35.77;17.70;;;3.00;99.90;;;;;;4914469;29;20195;-48
2022/03/20 01:46:04;;;;;;;35.37;18.57;;;3.10;99.90;;;;;;4914455;29;20768;-48
2022/03/20 01:48:29;;;;;;;31.63;17.17;;;3.00;56.50;;;;;;4914781;29;20199;-47
2022/03/20 01:50:55;;;;;;;42.43;20.20;;;3.10;37.80;;;;;;4921479;29;20250;-48
2022/03/20 01:53:21;;;;;;;35.30;18.60;;;3.00;5.30;;;;;;4914607;29;20194;-47
2022/03/20 01:55:46;;;;;;;34.90;18.07;;;3.10;6.30;;;;;;4910518;29;20235;-47
2022/03/20 01:58:16;;;;;;;31.80;17.90;;;3.00;1.00;;;;;;4913797;29;20257;-48
2022/03/20 02:00:42;;;;;;;38.50;18.23;;;3.00;1.00;;;;;;4929110;29;20210;-57
2022/03/20 02:03:07;;;;;;;38.40;18.77;;;3.00;1.00;;;;;;4913630;29;20442;-48
2022/03/20 02:05:35;;;;;;;35.50;18.90;;;3.00;1.00;;;;;;4910351;29;20250;-48
2022/03/20 02:08:02;;;;;;;36.40;19.33;;;3.00;1.00;;;;;;4914323;29;20190;-48
2022/03/20 02:10:35;;;;;;;31.10;17.67;;;3.00;1.00;;;;;;4914836;29;20431;-48
2022/03/20 02:13:01;;;;;;;32.00;17.00;;;3.00;1.00;;;;;;4906587;29;20431;-47
2022/03/20 02:15:28;;;;;;;35.07;17.50;;;3.00;1.00;;;;;;4915796;29;20427;-48
2022/03/20 02:17:56;;;;;;;37.97;19.97;;;3.00;1.00;;;;;;4913548;29;20482;-47
2022/03/20 02:20:22;;;;;;;33.27;18.37;;;2.90;1.00;;;;;;4914112;29;20427;-48
2022/03/20 02:22:48;;;;;;;30.63;17.13;;;3.00;1.00;;;;;;4914073;29;20488;-47
2022/03/20 02:25:18;;;;;;;34.07;17.90;;;2.90;1.00;;;;;;4908753;29;20530;-51
2022/03/20 02:27:44;;;;;;;37.20;18.80;;;2.90;1.00;;;;;;4920114;29;20434;-47
2022/03/20 02:30:14;;;;;;;31.47;17.83;;;2.90;1.00;;;;;;4913502;29;20522;-48
2022/03/20 02:32:47;;;;;;;34.77;18.20;;;2.80;1.00;;;;;;4914283;29;20435;-48
2022/03/20 02:35:15;;;;;;;34.23;17.83;;;2.90;1.00;;;;;;4911587;29;20431;-47
2022/03/20 02:38:01;;;;;;;30.23;18.30;;;2.90;1.00;;;;;;4913910;29;20486;-48
2022/03/20 02:40:26;;;;;;;29.30;17.00;;;2.90;1.00;;;;;;4900735;29;20442;-48
2022/03/20 02:42:54;;;;;;;35.23;18.80;;;2.80;1.00;;;;;;4909693;29;20802;-48
2022/03/20 02:45:29;;;;;;;31.70;18.00;;;2.80;1.00;;;;;;4912860;29;20245;-47
2022/03/20 02:47:57;;;;;;;34.97;18.07;;;2.80;1.00;;;;;;4896683;29;20438;-47
2022/03/20 02:50:32;;;;;;;34.57;17.90;;;2.90;1.00;;;;;;4913813;29;20427;-47
2022/03/20 02:53:01;;;;;;;36.77;19.57;;;2.80;1.00;;;;;;4914064;29;20462;-48
2022/03/20 02:55:27;;;;;;;31.90;18.60;;;2.90;1.00;;;;;;4913569;29;20475;-47
2022/03/20 02:57:55;;;;;;;36.80;18.10;;;2.90;1.00;;;;;;4913637;29;20835;-48
2022/03/20 03:00:25;;;;;;;33.30;18.83;;;2.80;1.00;;;;;;4913304;29;20446;-47
2022/03/20 03:02:52;;;;;;;33.67;17.77;;;2.90;1.00;;;;;;4913914;29;20898;-47
2022/03/20 03:05:19;;;;;;;32.40;17.90;;;2.90;1.00;;;;;;4911418;29;20435;-47
2022/03/20 03:13:17;;;;;;;36.37;17.90;;;2.80;1.00;;;;;;4913805;29;20993;-47
2022/03/20 03:15:43;;;;;;;31.30;17.97;;;2.80;1.00;;;;;;4913040;29;20901;-47
2022/03/20 03:18:08;;;;;;;28.80;16.73;;;2.70;1.00;;;;;;4913257;29;20439;-47
2022/03/20 03:20:34;;;;;;;31.40;18.40;;;2.70;1.00;;;;;;4913240;29;20442;-48
2022/03/20 03:23:00;;;;;;;33.77;18.47;;;2.80;1.00;;;;;;4913838;29;20187;-50
2022/03/20 03:25:26;;;;;;;34.10;17.53;;;2.70;1.00;;;;;;4913094;29;20433;-47
2022/03/20 03:27:53;;;;;;;33.73;18.27;;;2.70;1.00;;;;;;4914324;29;20207;-50
2022/03/20 03:30:19;;;;;;;29.47;18.40;;;2.70;1.00;;;;;;4913358;29;20657;-47
2022/03/20 03:32:45;;;;;;;33.37;19.27;;;2.70;1.00;;;;;;4912568;29;20443;-47
2022/03/20 03:37:57;;;;;;;34.20;18.80;;;2.70;1.00;;;;;;4913375;29;20311;-48
2022/03/20 03:40:24;;;;;;;27.77;16.00;;;2.70;1.00;;;;;;4913462;29;20476;-47
2022/03/20 03:42:50;;;;;;;30.87;18.13;;;2.60;1.00;;;;;;4901741;29;20543;-47
2022/03/20 03:45:15;;;;;;;36.00;18.10;;;2.60;1.00;;;;;;4914441;29;20919;-47
2022/03/20 03:47:41;;;;;;;31.00;18.43;;;2.60;1.00;;;;;;4923172;29;20927;-48
2022/03/20 03:50:08;;;;;;;31.87;18.13;;;2.60;1.00;;;;;;4923729;29;20195;-47
2022/03/20 03:52:33;;;;;;;31.53;17.87;;;2.50;1.00;;;;;;4916043;29;20191;-47
2022/03/20 03:54:59;;;;;;;39.23;19.63;;;2.50;1.00;;;;;;4917065;29;20866;-47
2022/03/20 03:57:25;;;;;;;32.53;20.10;;;2.50;1.00;;;;;;4916110;29;20764;-47
2022/03/20 03:59:50;;;;;;;39.40;19.90;;;2.50;1.00;;;;;;4916156;29;20195;-48
2022/03/20 04:02:16;;;;;;;31.20;17.63;;;2.50;1.00;;;;;;4916072;29;20215;-48
2022/03/20 04:04:42;;;;;;;37.13;19.50;;;2.50;1.00;;;;;;4916127;29;20194;-47
2022/03/20 04:07:08;;;;;;;36.50;19.23;;;2.40;1.00;;;;;;4915501;29;20187;-48
2022/03/20 04:09:35;;;;;;;39.43;18.93;;;2.50;1.00;;;;;;4913734;29;20439;-47
2022/03/20 04:12:02;;;;;;;36.60;18.70;;;2.40;1.00;;;;;;4915455;29;20431;-48
2022/03/20 04:14:28;;;;;;;34.67;19.10;;;2.40;1.00;;;;;;4915659;29;20462;-47
2022/03/20 04:16:54;;;;;;;33.13;18.90;;;2.40;1.00;;;;;;4915290;29;20526;-52
2022/03/20 04:19:20;;;;;;;39.40;19.43;;;2.50;1.00;;;;;;4915858;29;20879;-48
2022/03/20 04:21:46;;;;;;;33.67;18.80;;;2.50;1.00;;;;;;4901163;29;20214;-47
2022/03/20 04:24:11;;;;;;;37.20;18.53;;;2.30;1.00;;;;;;4916435;29;20583;-47
2022/03/20 04:26:37;;;;;;;34.47;20.00;;;2.40;1.00;;;;;;4916149;29;20447;-47
2022/03/20 04:29:02;;;;;;;41.17;19.10;;;2.40;1.00;;;;;;4915463;29;20669;-47
2022/03/20 04:31:29;;;;;;;34.60;19.40;;;2.40;1.00;;;;;;4895203;29;20227;-48
2022/03/20 04:33:56;;;;;;;35.17;19.43;;;2.40;1.00;;;;;;4915889;29;20649;-48
2022/03/20 04:36:24;;;;;;;34.83;18.70;;;2.40;1.00;;;;;;4915530;29;20478;-47
2022/03/20 04:38:52;;;;;;;36.30;19.30;;;2.30;1.00;;;;;;4915832;29;20434;-48
2022/03/20 04:41:18;;;;;;;35.07;19.60;;;2.30;1.00;;;;;;4915375;29;20470;-47
2022/03/20 04:43:44;;;;;;;35.93;19.47;;;2.30;1.00;;;;;;4915834;29;20427;-47
2022/03/20 04:46:11;;;;;;;32.43;18.00;;;2.40;1.00;;;;;;4915165;29;21035;-48
2022/03/20 04:59:32;;;;;;;30.60;18.73;;;2.40;99.90;;;;;;4908233;29;20443;-43
2022/03/20 05:01:58;;;;;;;42.17;18.70;;;2.30;99.90;;;;;;4914422;29;20821;-42
2022/03/20 05:04:23;;;;;;;38.00;19.70;;;2.30;99.90;;;;;;4915244;29;20186;-42
2022/03/20 05:06:49;;;;;;;33.90;17.93;;;2.20;99.90;;;;;;4915200;29;20187;-42
2022/03/20 05:14:44;;;;;;;36.90;20.07;;;2.20;99.90;;;;;;4911927;29;20438;-42
2022/03/20 05:17:10;;;;;;;34.17;19.63;;;2.10;99.90;;;;;;4915353;29;21009;-42
2022/03/20 05:19:37;;;;;;;38.83;20.57;;;2.00;99.90;;;;;;4914590;29;20435;-42
2022/03/20 05:22:04;;;;;;;37.70;20.23;;;2.10;99.90;;;;;;4914662;29;20558;-42
2022/03/20 05:24:30;;;;;;;37.97;20.33;;;2.10;99.90;;;;;;4914573;29;20427;-42
2022/03/20 05:26:56;;;;;;;36.73;18.70;;;2.10;99.90;;;;;;4914091;29;20439;-42
2022/03/20 05:29:25;;;;;;;34.33;20.17;;;2.10;99.90;;;;;;4894530;29;20427;-47
2022/03/20 05:31:53;;;;;;;33.60;18.97;;;2.10;99.90;;;;;;4914388;29;20194;-47
2022/03/20 05:34:19;;;;;;;33.90;19.30;;;2.20;99.90;;;;;;4923232;29;20439;-47
2022/03/20 05:36:45;;;;;;;36.30;20.27;;;2.10;99.90;;;;;;4914340;29;20795;-47
2022/03/20 05:39:11;;;;;;;33.37;19.10;;;2.10;99.90;;;;;;4895087;29;20483;-47
2022/03/20 05:41:49;;;;;;;42.60;20.13;;;2.10;99.90;;;;;;4914770;29;20213;-47
2022/03/20 05:44:16;;;;;;;37.70;20.00;;;2.10;99.90;;;;;;4914343;29;20604;-47
2022/03/20 05:46:44;;;;;;;34.60;19.53;;;2.10;99.90;;;;;;4913981;29;20475;-47
2022/03/20 05:49:09;;;;;;;42.17;19.60;;;2.10;99.90;;;;;;4914451;29;20426;-47
2022/03/20 05:51:37;;;;;;;37.27;19.70;;;2.10;99.90;;;;;;4916832;29;20430;-48
2022/03/20 05:54:03;;;;;;;37.47;20.23;;;2.10;99.90;;;;;;4915013;29;20183;-47
2022/03/20 05:59:13;;;;;;;37.43;19.40;;;2.20;99.90;;;;;;4914909;29;20519;-47
2022/03/20 06:01:39;;;;;;;37.40;20.43;;;2.30;99.90;;;;;;4914061;29;20515;-47
2022/03/20 06:04:05;;;;;;;46.40;20.07;;;2.30;99.90;;;;;;4914295;29;20181;-47
2022/03/20 06:06:32;;;;;;;36.43;19.67;;;2.30;99.90;;;;;;4913907;29;20191;-47
2022/03/20 06:08:57;;;;;;;33.87;19.27;;;2.40;99.90;;;;;;4897477;29;20428;-49
2022/03/20 06:11:22;;;;;;;35.97;20.50;;;2.40;99.90;;;;;;4914033;29;20439;-47
2022/03/20 06:13:49;;;;;;;35.10;19.90;;;2.40;99.90;;;;;;4914562;29;20190;-47
2022/03/20 06:16:16;;;;;;;45.40;19.67;;;2.40;99.90;;;;;;4908065;29;20439;-48
2022/03/20 06:18:42;;;;;;;40.53;20.57;;;2.40;99.90;;;;;;4896193;29;20623;-47
2022/03/20 06:21:11;;;;;;;38.10;20.13;;;2.50;99.90;;;;;;4907236;29;21107;-47
2022/03/20 06:23:37;;;;;;;35.90;18.60;;;2.60;99.90;;;;;;4914166;29;20439;-48
2022/03/20 06:26:04;;;;;;;30.90;18.30;;;2.60;99.90;;;;;;4913662;29;20443;-47
2022/03/20 06:28:30;;;;;;;34.03;18.07;;;2.60;99.90;;;;;;4914144;29;21088;-47
2022/03/20 06:30:55;;;;;;;31.90;19.30;;;2.70;99.90;;;;;;4913680;29;20521;-47
2022/03/20 06:33:21;;;;;;;35.50;19.13;;;2.70;99.90;;;;;;4914106;29;20189;-48
2022/03/20 06:35:47;;;;;;;34.53;19.70;;;2.90;99.90;;;;;;4896431;29;20223;-47
2022/03/20 06:38:12;;;;;;;36.77;19.73;;;3.00;99.90;;;;;;4919787;29;20234;-48
2022/03/20 06:40:38;;;;;;;29.40;18.07;;;3.10;99.90;;;;;;4909258;29;20787;-47
2022/03/20 06:43:04;;;;;;;33.83;19.53;;;3.10;99.90;;;;;;4913355;29;20193;-47
2022/03/20 06:45:29;;;;;;;33.60;18.67;;;3.20;99.90;;;;;;4911542;29;20270;-47
2022/03/20 06:47:55;;;;;;;34.40;18.63;;;3.40;99.90;;;;;;4913139;29;20309;-50
2022/03/20 06:50:21;;;;;;;29.40;17.00;;;3.50;99.90;;;;;;4913850;29;20194;-47
2022/03/20 06:52:46;;;;;;;33.87;19.20;;;3.60;99.90;;;;;;4913552;29;20179;-47
2022/03/20 06:55:13;;;;;;;32.90;17.70;;;3.80;99.90;;;;;;4917387;29;20245;-47
2022/03/20 06:57:44;;;;;;;32.93;17.77;;;3.90;99.90;;;;;;4922846;29;20274;-47
2022/03/20 07:00:12;;;;;;;35.13;19.53;;;4.00;99.90;;;;;;4914382;29;21436;-47
2022/03/20 07:02:38;;;;;;;34.27;18.07;;;4.20;99.90;;;;;;4913578;29;20474;-47
2022/03/20 07:05:04;;;;;;;29.67;17.53;;;4.20;99.90;;;;;;4913281;29;20498;-47
2022/03/20 07:07:30;;;;;;;30.90;18.40;;;4.30;99.90;;;;;;4913769;29;20315;-47
2022/03/20 07:09:55;;;;;;;36.53;18.63;;;4.40;99.90;;;;;;4913840;29;20545;-47
2022/03/20 07:12:21;;;;;;;30.83;18.17;;;4.70;99.90;;;;;;4913195;29;20198;-47
2022/03/20 07:14:47;;;;;;;30.60;17.73;;;5.00;99.90;;;;;;4870915;29;20831;-47
2022/03/20 07:17:16;;;;;;;31.57;18.40;;;5.30;99.90;;;;;;4912713;29;20463;-47
2022/03/20 07:19:43;;;;;;;29.20;16.53;;;5.60;99.90;;;;;;4914823;29;20187;-47
2022/03/20 07:22:10;;;;;;;30.67;17.17;;;5.90;99.90;;;;;;4916992;29;20553;-47
2022/03/20 07:24:39;;;;;;;29.20;17.63;;;6.10;99.90;;;;;;4900050;29;20447;-47
2022/03/20 07:29:50;;;;;;;28.87;16.57;;;6.80;99.90;;;;;;4916985;29;20531;-48
2022/03/20 07:32:16;;;;;;;27.53;16.73;;;7.10;99.90;;;;;;4916960;29;20525;-47
2022/03/20 07:34:44;;;;;;;34.40;17.20;;;7.30;99.90;;;;;;4911712;29;20546;-47
2022/03/20 07:37:10;;;;;;;25.60;16.53;;;7.60;99.90;;;;;;4909654;29;20278;-48
2022/03/20 07:39:36;;;;;;;32.10;16.53;;;7.80;99.90;;;;;;4916137;29;20582;-48
2022/03/20 07:42:02;;;;;;;25.97;16.13;;;8.00;99.90;;;;;;4915812;29;20884;-49
2022/03/20 07:44:32;;;;;;;28.27;16.40;;;8.00;99.90;;;;;;4914087;29;20521;-48
2022/03/20 07:46:58;;;;;;;29.20;16.67;;;8.20;99.90;;;;;;4897397;29;20439;-48
2022/03/20 07:49:24;;;;;;;28.63;16.80;;;8.30;99.90;;;;;;4914100;29;20457;-48
2022/03/20 07:51:53;;;;;;;26.70;17.30;;;8.20;99.90;;;;;;4915031;29;20803;-49
2022/03/20 07:54:18;;;;;;;29.50;16.37;;;8.40;99.90;;;;;;4911546;29;20446;-49
2022/03/20 07:56:45;;;;;;;25.60;15.93;;;8.50;99.90;;;;;;4907857;29;20522;-49
2022/03/20 07:59:11;;;;;;;26.60;16.60;;;8.70;99.90;;;;;;4914843;29;20572;-49
2022/03/20 08:01:37;;;;;;;30.10;16.10;;;9.00;99.90;;;;;;4912727;29;20558;-49
2022/03/20 08:04:03;;;;;;;27.63;16.93;;;9.10;99.90;;;;;;4914934;29;21203;-49
2022/03/20 08:06:30;;;;;;;25.60;16.87;;;9.10;99.90;;;;;;4915067;29;20195;-49
2022/03/20 08:08:59;;;;;;;25.67;17.23;;;9.20;99.90;;;;;;4914879;29;20852;-49
2022/03/20 08:11:26;;;;;;;30.37;16.80;;;9.40;99.90;;;;;;4898759;29;20456;-49
2022/03/20 08:13:51;;;;;;;25.13;16.67;;;9.50;99.90;;;;;;4914806;29;20937;-48
2022/03/20 08:16:20;;;;;;;27.50;17.00;;;9.70;99.90;;;;;;4914955;29;20439;-48
2022/03/20 08:18:46;;;;;;;24.50;15.83;;;9.60;99.90;;;;;;4915526;29;20222;-49
2022/03/20 08:21:12;;;;;;;27.00;16.13;;;9.50;99.90;;;;;;4914226;29;20922;-48
2022/03/20 08:23:42;;;;;;;28.80;17.80;;;9.50;99.90;;;;;;4919549;29;20258;-49
2022/03/20 08:26:08;;;;;;;26.93;16.10;;;9.50;99.90;;;;;;4897438;29;20479;-48
2022/03/20 08:28:37;;;;;;;28.50;17.10;;;9.60;99.90;;;;;;4914535;29;20443;-48
2022/03/20 08:31:03;;;;;;;26.67;16.90;;;10.20;99.90;;;;;;4914342;29;20862;-48
2022/03/20 08:33:28;;;;;;;37.60;17.43;;;10.50;99.90;;;;;;4914122;29;20431;-47
2022/03/20 08:35:54;;;;;;;25.77;16.70;;;10.70;99.90;;;;;;4913556;29;20446;-47
2022/03/20 08:38:19;;;;;;;30.40;17.20;;;10.70;99.90;;;;;;4913695;29;20232;-48
2022/03/20 08:40:45;;;;;;;28.63;17.60;;;10.70;99.90;;;;;;4914227;29;20191;-48
2022/03/20 08:43:15;;;;;;;27.93;16.93;;;10.60;99.90;;;;;;4914811;29;20636;-48
2022/03/20 08:45:41;;;;;;;25.57;15.90;;;11.00;99.90;;;;;;4897187;29;20187;-49
2022/03/20 08:48:08;;;;;;;23.70;16.57;;;11.70;99.90;;;;;;4910552;29;20476;-49
2022/03/20 08:50:34;;;;;;;28.83;17.50;;;12.40;99.90;;;;;;4915107;29;20903;-48
2022/03/20 08:52:59;;;;;;;26.00;17.80;;;12.30;99.90;;;;;;4899226;29;20439;-49
2022/03/20 08:55:25;;;;;;;24.27;16.77;;;12.20;99.90;;;;;;4930856;29;20655;-48
2022/03/20 08:57:54;;;;;;;29.70;17.73;;;12.40;99.90;;;;;;4926915;29;20235;-48
2022/03/20 09:00:22;;;;;;;28.00;17.90;;;12.60;99.90;;;;;;4915514;29;20159;-48
2022/03/20 09:02:50;;;;;;;25.43;16.60;;;12.50;99.90;;;;;;4915493;29;20473;-48
2022/03/20 09:05:17;;;;;;;26.43;17.40;;;12.30;99.90;;;;;;4914558;29;20443;-50
2022/03/20 09:07:44;;;;;;;26.50;17.10;;;11.90;99.90;;;;;;4914546;29;20428;-48
2022/03/20 09:10:12;;;;;;;30.33;17.90;;;12.10;99.90;;;;;;4891900;29;20452;-47
2022/03/20 09:12:38;;;;;;;28.67;17.90;;;12.30;99.90;;;;;;4912481;29;20891;-49
2022/03/20 09:15:05;;;;;;;23.17;16.93;;;12.60;99.90;;;;;;4906673;29;20471;-48
2022/03/20 09:20:17;;;;;;;25.33;17.20;;;12.60;99.90;;;;;;4914843;29;20446;-48
2022/03/20 09:22:43;;;;;;;25.60;17.70;;;12.20;99.90;;;;;;4914854;29;20467;-48
2022/03/20 09:25:09;;;;;;;27.00;17.23;;;11.90;99.90;;;;;;4914815;29;20466;-48
2022/03/20 09:27:35;;;;;;;27.17;17.23;;;11.60;99.90;;;;;;4918174;29;20458;-48
2022/03/20 09:30:02;;;;;;;28.47;18.33;;;11.50;99.90;;;;;;4924831;29;21030;-49
2022/03/20 09:32:27;;;;;;;30.00;19.03;;;11.70;99.90;;;;;;4914570;29;20198;-48
2022/03/20 09:34:53;;;;;;;25.80;17.80;;;11.60;99.90;;;;;;4897955;29;20794;-48
2022/03/20 09:37:18;;;;;;;31.50;18.70;;;11.40;99.90;;;;;;4913897;29;20196;-49
2022/03/20 09:39:44;;;;;;;31.50;19.00;;;11.40;99.90;;;;;;4913999;29;20219;-49
2022/03/20 09:42:10;;;;;;;28.80;18.37;;;11.60;99.90;;;;;;4914120;29;20311;-49
2022/03/20 09:44:38;;;;;;;30.50;19.13;;;11.40;99.90;;;;;;4914494;29;20175;-47
2022/03/20 09:47:17;;;;;;;31.67;19.23;;;11.50;99.90;;;;;;4912104;29;20182;-48
2022/03/20 09:49:44;;;;;;;29.37;18.47;;;11.40;99.90;;;;;;4909472;29;20430;-49
2022/03/20 09:52:10;;;;;;;33.20;19.40;;;11.30;99.90;;;;;;4914447;29;20454;-50
2022/03/20 09:54:36;;;;;;;33.77;19.90;;;11.20;99.90;;;;;;4913303;29;20955;-49
2022/03/20 09:57:04;;;;;;;28.97;18.63;;;11.40;99.90;;;;;;4913871;29;20766;-49
2022/03/20 09:59:33;;;;;;;36.93;20.20;;;11.30;99.90;;;;;;4914140;29;20455;-48
2022/03/20 10:02:10;;;;;;;33.87;20.37;;;11.40;99.90;;;;;;4897023;29;21193;-44
2022/03/20 10:04:52;;;;;;;34.10;21.20;;;11.50;99.90;;;;;;4914323;29;20414;-44
2022/03/20 10:07:23;;;;;;;32.53;19.13;;;11.60;99.90;;;;;;4913825;29;20496;-44
2022/03/20 10:10:07;;;;;;;32.83;19.80;;;11.70;99.90;;;;;;4912156;29;20442;-44
2022/03/20 10:12:35;;;;;;;35.53;19.50;;;11.60;99.90;;;;;;4912422;29;20423;-44
2022/03/20 10:15:02;;;;;;;33.70;20.20;;;11.70;99.90;;;;;;4913416;29;20431;-43
2022/03/20 10:17:28;;;;;;;34.00;19.77;;;11.70;99.90;;;;;;4910418;29;21180;-44
2022/03/20 10:19:55;;;;;;;29.43;18.57;;;11.50;99.90;;;;;;4913063;29;20510;-44
2022/03/20 10:22:21;;;;;;;32.20;20.07;;;11.70;99.90;;;;;;4912689;29;20210;-43
2022/03/20 10:24:51;;;;;;;28.57;19.10;;;12.00;99.90;;;;;;4910464;29;20426;-44
2022/03/20 10:27:17;;;;;;;32.27;19.93;;;12.30;99.90;;;;;;4912514;29;20686;-44
2022/03/20 10:29:54;;;;;;;32.47;19.73;;;12.50;99.90;;;;;;4911987;29;20431;-43
2022/03/20 10:32:21;;;;;;;34.17;20.13;;;12.50;99.90;;;;;;4906429;29;20207;-44
2022/03/20 10:34:56;;;;;;;32.83;20.90;;;12.40;99.90;;;;;;4912527;29;20439;-44
2022/03/20 10:37:43;;;;;;;32.80;19.77;;;12.70;99.90;;;;;;4904927;29;20457;-43
2022/03/20 10:40:14;;;;;;;33.23;19.87;;;12.80;99.90;;;;;;4909479;29;20454;-44
2022/03/20 10:42:41;;;;;;;34.13;19.90;;;13.00;99.90;;;;;;4912503;29;20530;-43
2022/03/20 10:45:07;;;;;;;29.33;19.07;;;13.30;99.90;;;;;;4911509;29;20890;-43
2022/03/20 10:47:33;;;;;;;28.70;18.90;;;13.70;99.90;;;;;;4909905;29;20445;-43
2022/03/20 10:50:09;;;;;;;31.10;19.63;;;13.90;99.90;;;;;;4911608;29;20733;-43
2022/03/20 10:52:36;;;;;;;30.17;18.93;;;14.30;99.90;;;;;;4913371;29;20798;-43
2022/03/20 10:55:10;;;;;;;29.10;19.10;;;14.90;99.90;;;;;;4912387;29;21303;-43
2022/03/20 10:57:36;;;;;;;31.00;19.73;;;15.40;99.90;;;;;;4913118;29;20861;-42
2022/03/20 11:00:11;;;;;;;27.10;19.03;;;15.70;99.90;;;;;;4912577;29;20428;-43
2022/03/20 11:02:39;;;;;;;35.07;19.50;;;15.80;99.90;;;;;;4915403;29;20740;-44
2022/03/20 11:05:08;;;;;;;28.20;19.47;;;16.00;99.90;;;;;;4916974;29;20446;-44
2022/03/20 11:07:35;;;;;;;28.97;19.93;;;16.50;99.90;;;;;;4915958;29;20443;-44
2022/03/20 11:10:02;;;;;;;28.30;18.43;;;16.40;99.90;;;;;;4912404;29;20510;-44
2022/03/20 11:12:29;;;;;;;30.17;19.40;;;16.80;99.90;;;;;;4916167;29;20435;-44
2022/03/20 11:14:59;;;;;;;29.27;18.70;;;16.80;99.90;;;;;;4914984;29;20466;-44
2022/03/20 11:17:36;;;;;;;26.67;18.50;;;17.10;99.90;;;;;;4915964;29;21184;-44
2022/03/20 11:20:02;;;;;;;29.70;20.30;;;17.50;99.90;;;;;;4914919;29;20584;-42
2022/03/20 11:22:29;;;;;;;28.17;18.20;;;16.70;99.90;;;;;;4915442;29;20463;-42
2022/03/20 11:24:56;;;;;;;29.73;19.30;;;16.40;99.90;;;;;;4915835;29;20447;-44
2022/03/20 11:27:30;;;;;;;30.90;18.00;;;16.70;99.90;;;;;;4914149;29;20757;-44
2022/03/20 11:30:02;;;;;;;28.47;19.87;;;17.30;99.90;;;;;;4915203;29;20940;-44
2022/03/20 11:32:28;;;;;;;35.83;19.83;;;17.20;99.90;;;;;;4912812;29;20430;-44
2022/03/20 11:34:55;;;;;;;25.80;17.92;;;17.10;99.90;;;;;;4913766;29;20794;-44
2022/03/20 11:37:20;;;;;;;31.13;19.73;;;17.00;99.90;;;;;;4914243;29;20191;-42
2022/03/20 11:40:20;;;;;;;27.90;18.63;;;16.90;99.90;;;;;;4915506;29;20522;-44
2022/03/20 11:42:47;;;;;;;28.67;18.53;;;17.20;99.90;;;;;;4913400;29;20207;-43
2022/03/20 11:45:18;;;;;;;28.60;19.23;;;16.50;99.90;;;;;;4913786;29;20450;-43
2022/03/20 11:47:46;;;;;;;31.77;19.60;;;16.60;99.90;;;;;;4914589;29;20455;-47
2022/03/20 11:50:22;;;;;;;31.27;19.60;;;16.60;99.90;;;;;;4912372;29;20498;-48
2022/03/20 11:52:58;;;;;;;28.97;19.20;;;17.10;99.90;;;;;;4908131;29;20446;-48
2022/03/20 11:55:34;;;;;;;35.17;19.67;;;17.40;99.90;;;;;;4911950;29;20778;-48
2022/03/20 11:58:08;;;;;;;28.53;19.80;;;17.90;99.90;;;;;;4911040;29;20542;-48
2022/03/20 12:00:39;;;;;;;36.20;19.20;;;18.30;99.90;;;;;;4913338;29;20459;-49
2022/03/20 12:03:13;;;;;;;29.23;20.30;;;18.30;99.90;;;;;;4913233;29;20447;-50
2022/03/20 12:05:42;;;;;;;33.07;19.70;;;17.50;99.90;;;;;;4913424;29;20447;-50
2022/03/20 12:08:40;;;;;;;31.67;20.07;;;17.50;99.90;;;;;;4910842;29;20956;-49
2022/03/20 12:11:18;;;;;;;30.43;19.57;;;17.40;99.90;;;;;;4905693;29;20796;-50
2022/03/20 12:14:21;;;;;;;28.07;19.53;;;17.70;99.90;;;;;;4912400;29;20439;-49
2022/03/20 12:16:50;;;;;;;30.83;19.80;;;18.00;99.90;;;;;;4907509;29;20477;-49
2022/03/20 12:19:18;;;;;;;26.10;18.83;;;18.10;99.90;;;;;;4913550;29;20439;-49
2022/03/20 12:22:07;;;;;;;31.47;19.43;;;17.70;99.90;;;;;;4913340;29;20529;-49
2022/03/20 12:24:37;;;;;;;28.17;18.90;;;17.80;99.90;;;;;;4914369;29;20443;-52
2022/03/20 12:29:51;;;;;;;28.93;20.00;;;17.50;99.90;;;;;;4908920;29;20533;-50
2022/03/20 12:32:18;;;;;;;32.67;20.60;;;17.20;99.90;;;;;;4910633;29;20502;-49
2022/03/20 12:35:04;;;;;;;30.23;19.70;;;17.60;99.90;;;;;;4912745;29;20449;-47
2022/03/20 12:37:30;;;;;;;25.90;17.57;;;17.40;99.90;;;;;;4912640;29;21199;-48
2022/03/20 12:40:02;;;;;;;27.83;18.57;;;17.00;99.90;;;;;;4913000;29;20467;-43
2022/03/20 12:42:27;;;;;;;29.23;18.00;;;16.90;99.90;;;;;;4913489;29;21373;-44
2022/03/20 12:44:53;;;;;;;28.50;19.87;;;17.00;99.90;;;;;;4913275;29;20522;-44
2022/03/20 12:47:20;;;;;;;26.20;18.70;;;17.60;99.90;;;;;;4914018;29;20221;-44
2022/03/20 12:49:47;;;;;;;27.30;18.73;;;18.20;99.90;;;;;;4912599;29;20232;-44
2022/03/20 12:52:15;;;;;;;26.00;18.37;;;17.80;99.90;;;;;;4911297;29;20443;-44
2022/03/20 12:54:55;;;;;;;32.60;19.10;;;17.50;99.90;;;;;;4915033;29;20595;-44
2022/03/20 12:57:44;;;;;;;28.03;18.90;;;17.50;99.90;;;;;;4913438;29;20474;-44
2022/03/20 13:00:13;;;;;;;27.87;17.93;;;17.70;99.90;;;;;;4913889;29;20462;-43
2022/03/20 13:03:04;;;;;;;33.27;19.90;;;18.20;99.90;;;;;;4912612;29;20526;-43
2022/03/20 13:05:32;;;;;;;26.70;18.77;;;18.50;99.90;;;;;;4911613;29;20439;-43
2022/03/20 13:07:57;;;;;;;33.63;19.07;;;18.30;99.90;;;;;;4912950;29;20443;-43
2022/03/20 13:10:25;;;;;;;26.53;18.03;;;18.30;99.90;;;;;;4913884;29;20435;-43
2022/03/20 13:13:01;;;;;;;29.17;19.20;;;18.30;99.90;;;;;;4913276;29;20206;-44
2022/03/20 13:15:30;;;;;;;30.13;17.90;;;18.10;99.90;;;;;;4914397;29;20581;-44